createdAt,value
2018-07-27T00:02:14.769Z,95277.90
2018-07-27T00:05:19.328Z,95284.19
2018-07-27T00:08:23.580Z,95277.05
2018-07-27T00:11:27.944Z,95297.99
2018-07-27T00:14:32.460Z,95274.52
2018-07-27T00:17:37.352Z,95268.67
2018-07-27T00:20:41.610Z,95170.77
2018-07-27T00:23:45.865Z,95205.63
2018-07-27T00:26:50.125Z,95198.77
2018-07-27T00:29:54.449Z,95206.37
2018-07-27T00:32:58.728Z,95227.79
2018-07-27T00:36:03.035Z,95211.18
2018-07-27T00:39:10.098Z,95207.64
2018-07-27T00:42:14.410Z,95208.69
2018-07-27T00:45:18.818Z,95229.52
2018-07-27T00:48:23.153Z,95217.17
2018-07-27T00:51:27.491Z,95207.13
2018-07-27T00:54:31.789Z,95272.58
2018-07-27T00:57:36.090Z,95222.05
2018-07-27T01:00:40.400Z,95224.36
2018-07-27T01:03:44.706Z,95223.58
2018-07-27T01:06:49.140Z,95215.61
2018-07-27T01:09:53.453Z,95232.28
2018-07-27T01:12:57.763Z,95221.52
2018-07-27T01:16:02.097Z,95211.71
2018-07-27T01:19:06.649Z,95202.80
2018-07-27T01:22:10.928Z,95210.70
2018-07-27T01:25:15.202Z,95224.80
2018-07-27T01:28:19.471Z,95205.50
2018-07-27T01:31:24.052Z,95312.64
2018-07-27T01:34:28.344Z,95209.83
2018-07-27T01:37:33.775Z,95207.00
2018-07-27T01:40:38.249Z,95205.45
2018-07-27T01:43:42.653Z,95205.98
2018-07-27T01:46:46.918Z,95244.97
2018-07-27T01:49:51.249Z,95211.07
2018-07-27T01:52:55.746Z,95212.38
2018-07-27T01:56:00.118Z,95206.55
2018-07-27T01:59:04.746Z,95296.40
2018-07-27T02:02:09.194Z,95266.34
2018-07-27T02:05:13.656Z,95219.39
2018-07-27T02:08:17.968Z,95205.02
2018-07-27T02:11:22.242Z,95211.22
2018-07-27T02:14:26.936Z,95329.11
2018-07-27T02:17:31.251Z,95203.46
2018-07-27T02:20:35.507Z,95250.63
2018-07-27T02:23:39.819Z,95296.06
2018-07-27T02:26:44.011Z,95290.76
2018-07-27T02:29:48.248Z,95290.24
2018-07-27T02:32:52.481Z,95297.02
2018-07-27T02:35:57.093Z,95294.34
2018-07-27T02:39:01.341Z,95285.31
2018-07-27T02:42:05.585Z,95296.55
2018-07-27T02:45:09.894Z,95280.47
2018-07-27T02:48:14.176Z,95281.77
2018-07-27T02:51:18.651Z,95292.78
2018-07-27T02:54:22.899Z,95303.97
2018-07-27T02:57:27.143Z,95313.87
2018-07-27T03:00:31.425Z,95306.48
2018-07-27T03:03:36.396Z,95330.43
2018-07-27T03:06:40.801Z,95309.81
2018-07-27T03:09:45.089Z,95314.57
2018-07-27T03:12:49.501Z,95305.79
2018-07-27T03:15:53.548Z,95297.75
2018-07-27T03:18:57.913Z,95297.75
2018-07-27T03:22:02.197Z,95298.27
2018-07-27T03:25:07.117Z,95306.56
2018-07-27T03:28:11.433Z,95300.86
2018-07-27T03:31:15.709Z,95292.13
2018-07-27T03:34:19.942Z,95330.17
2018-07-27T03:37:24.229Z,95291.08
2018-07-27T03:40:28.480Z,95328.69
2018-07-27T03:43:32.801Z,95299.38
2018-07-27T03:46:37.315Z,95293.97
2018-07-27T03:49:41.577Z,95296.48
2018-07-27T03:52:45.908Z,95289.09
2018-07-27T03:55:50.236Z,95430.56
2018-07-27T03:58:54.521Z,95350.89
2018-07-27T04:01:58.853Z,95300.08
2018-07-27T04:05:03.855Z,95309.75
2018-07-27T04:08:08.109Z,95295.58
2018-07-27T04:11:12.404Z,95285.35
2018-07-27T04:14:17.137Z,95283.88
2018-07-27T04:17:21.517Z,95293.47
2018-07-27T04:20:25.830Z,95271.40
2018-07-27T04:23:30.169Z,95253.99
2018-07-27T04:26:34.503Z,95262.03
2018-07-27T04:29:38.964Z,95269.20
2018-07-27T04:32:43.276Z,95290.15
2018-07-27T04:35:47.617Z,95286.39
2018-07-27T04:38:51.865Z,95278.91
2018-07-27T04:41:56.381Z,95279.30
2018-07-27T04:45:00.462Z,95270.78
2018-07-27T04:48:04.899Z,95275.13
2018-07-27T04:51:09.565Z,95278.64
2018-07-27T04:54:13.891Z,95275.05
2018-07-27T04:57:18.615Z,95272.50
2018-07-27T05:00:23.000Z,95270.77
2018-07-27T05:03:27.446Z,95290.27
2018-07-27T05:06:31.981Z,95289.92
2018-07-27T05:09:36.420Z,95289.02
2018-07-27T05:12:40.821Z,95283.72
2018-07-27T05:15:45.957Z,95294.56
2018-07-27T05:18:50.569Z,95305.38
2018-07-27T05:21:54.581Z,95298.17
2018-07-27T05:24:58.859Z,95302.87
2018-07-27T05:28:03.869Z,95308.20
2018-07-27T05:31:08.173Z,95308.66
2018-07-27T05:34:12.759Z,95308.23
2018-07-27T05:37:17.049Z,95310.92
2018-07-27T05:40:21.473Z,95320.92
2018-07-27T05:43:25.748Z,95327.44
2018-07-27T05:46:30.105Z,95320.47
2018-07-27T05:49:34.438Z,95338.84
2018-07-27T05:52:39.512Z,95362.50
2018-07-27T05:55:43.720Z,95372.19
2018-07-27T05:58:48.497Z,95372.84
2018-07-27T06:01:52.792Z,95139.34
2018-07-27T06:04:57.224Z,95523.98
2018-07-27T06:08:01.426Z,95520.70
2018-07-27T06:11:05.898Z,95522.66
2018-07-27T06:14:11.103Z,95482.94
2018-07-27T06:17:15.372Z,95469.39
2018-07-27T06:20:19.800Z,95484.28
2018-07-27T06:23:24.069Z,95521.52
2018-07-27T06:26:28.531Z,95538.29
2018-07-27T06:29:32.840Z,95573.08
2018-07-27T06:32:37.305Z,95607.14
2018-07-27T06:35:41.581Z,95606.51
2018-07-27T06:38:45.607Z,95620.98
2018-07-27T06:41:49.917Z,95540.84
2018-07-27T06:44:54.229Z,95537.93
2018-07-27T06:47:58.562Z,95520.80
2018-07-27T06:51:03.328Z,95577.75
2018-07-27T06:54:07.812Z,95578.47
2018-07-27T06:57:12.140Z,95526.14
2018-07-27T07:00:17.242Z,95541.90
2018-07-27T07:03:21.901Z,95506.04
2018-07-27T07:06:26.462Z,95460.85
2018-07-27T07:09:32.030Z,95505.87
2018-07-27T07:12:36.392Z,95497.48
2018-07-27T07:15:40.673Z,95533.39
2018-07-27T07:18:45.546Z,95528.26
2018-07-27T07:21:50.124Z,95458.41
2018-07-27T07:24:54.525Z,95500.34
2018-07-27T07:27:58.809Z,95444.09
2018-07-27T07:31:03.338Z,95463.96
2018-07-27T07:34:07.974Z,95469.59
2018-07-27T07:37:12.245Z,95466.80
2018-07-27T07:40:16.542Z,95491.44
2018-07-27T07:43:20.821Z,95486.38
2018-07-27T07:46:25.158Z,95467.02
2018-07-27T07:49:29.458Z,95462.83
2018-07-27T07:52:33.685Z,95462.59
2018-07-27T07:55:37.958Z,95466.03
2018-07-27T07:58:42.591Z,95437.38
2018-07-27T08:01:46.838Z,95442.25
2018-07-27T08:04:51.124Z,95464.86
2018-07-27T08:07:55.506Z,95462.88
2018-07-27T08:10:59.799Z,95469.76
2018-07-27T08:14:04.213Z,95412.66
2018-07-27T08:17:08.747Z,95422.72
2018-07-27T08:20:13.007Z,95393.59
2018-07-27T08:23:17.311Z,95396.68
2018-07-27T08:26:42.063Z,95428.02
2018-07-27T08:29:46.583Z,95416.30
2018-07-27T08:32:50.841Z,95423.34
2018-07-27T08:35:55.116Z,95412.50
2018-07-27T08:38:59.158Z,95397.45
2018-07-27T08:42:03.483Z,95400.10
2018-07-27T08:45:07.868Z,95391.41
2018-07-27T08:48:12.257Z,95412.49
2018-07-27T08:51:16.510Z,95423.66
2018-07-27T08:54:20.893Z,95228.80
2018-07-27T08:57:25.158Z,95188.04
2018-07-27T09:00:46.561Z,95188.29
2018-07-27T09:03:50.866Z,95213.89
2018-07-27T09:06:55.425Z,95242.98
2018-07-27T09:09:59.965Z,95224.40
2018-07-27T09:13:04.261Z,95215.70
2018-07-27T09:16:09.126Z,95228.11
2018-07-27T09:19:13.537Z,95242.11
2018-07-27T09:22:17.850Z,95240.34
2018-07-27T09:25:23.011Z,95234.70
2018-07-27T09:28:27.477Z,95242.58
2018-07-27T09:31:31.983Z,95238.93
2018-07-27T09:34:36.338Z,95218.95
2018-07-27T09:37:40.659Z,95224.52
2018-07-27T09:40:45.609Z,95217.84
2018-07-27T09:43:49.897Z,95209.28
2018-07-27T09:46:54.231Z,95225.74
2018-07-27T09:49:58.575Z,95208.20
2018-07-27T09:53:03.016Z,95207.52
2018-07-27T09:56:07.297Z,95197.80
2018-07-27T09:59:11.620Z,95211.36
2018-07-27T10:02:15.869Z,95194.77
2018-07-27T10:05:20.627Z,95221.93
2018-07-27T10:08:25.684Z,95223.73
2018-07-27T10:11:29.942Z,95213.33
2018-07-27T10:14:34.265Z,95198.78
2018-07-27T10:17:38.529Z,95205.33
2018-07-27T10:20:42.893Z,95179.56
2018-07-27T10:23:47.201Z,95178.52
2018-07-27T10:26:51.538Z,95182.26
2018-07-27T10:29:55.819Z,95176.55
2018-07-27T10:33:00.091Z,95182.92
2018-07-27T10:36:04.720Z,95172.55
2018-07-27T10:39:11.230Z,95183.27
2018-07-27T10:42:15.924Z,95166.58
2018-07-27T10:45:20.218Z,95164.27
2018-07-27T10:48:24.607Z,95168.05
2018-07-27T10:51:29.084Z,95161.97
2018-07-27T10:54:33.421Z,95161.70
2018-07-27T10:57:37.709Z,95166.80
2018-07-27T11:00:42.094Z,95145.10
2018-07-27T11:03:46.474Z,95148.94
2018-07-27T11:06:50.958Z,95186.45
2018-07-27T11:09:55.738Z,95186.77
2018-07-27T11:13:00.048Z,95170.91
2018-07-27T11:16:04.547Z,95182.57
2018-07-27T11:19:09.259Z,95189.00
2018-07-27T11:22:13.388Z,95182.34
2018-07-27T11:25:17.749Z,95180.57
2018-07-27T11:28:22.218Z,95190.16
2018-07-27T11:31:26.851Z,95186.72
2018-07-27T11:34:31.353Z,95154.41
2018-07-27T11:37:35.745Z,95147.11
2018-07-27T11:40:40.119Z,95158.28
2018-07-27T11:43:44.401Z,95145.92
2018-07-27T11:46:48.878Z,95137.09
2018-07-27T11:49:53.207Z,95132.72
2018-07-27T11:52:57.657Z,95125.64
2018-07-27T11:56:01.945Z,95109.30
2018-07-27T11:59:06.290Z,95097.36
2018-07-27T12:02:10.646Z,95088.77
2018-07-27T12:05:15.031Z,95100.77
2018-07-27T12:08:19.408Z,95104.99
2018-07-27T12:11:23.677Z,95102.21
2018-07-27T12:14:28.368Z,95111.19
2018-07-27T12:17:32.565Z,95101.14
2018-07-27T12:20:36.953Z,95098.28
2018-07-27T12:23:41.149Z,95098.41
2018-07-27T12:26:45.781Z,95094.02
2018-07-27T12:29:49.813Z,95082.89
2018-07-27T12:32:54.096Z,95093.64
2018-07-27T12:35:58.380Z,95084.98
2018-07-27T12:39:02.905Z,95068.20
2018-07-27T12:42:07.489Z,95084.69
2018-07-27T12:45:11.861Z,95065.64
2018-07-27T12:48:16.164Z,95065.00
2018-07-27T12:51:20.487Z,95050.33
2018-07-27T12:54:24.779Z,95044.16
2018-07-27T12:57:29.423Z,95049.00
2018-07-27T13:00:33.712Z,95050.87
2018-07-27T13:03:37.994Z,95063.02
2018-07-27T13:06:42.389Z,95068.64
2018-07-27T13:09:46.664Z,95052.56
2018-07-27T13:12:50.991Z,95054.95
2018-07-27T13:15:55.507Z,95049.30
2018-07-27T13:18:59.801Z,95050.27
2018-07-27T13:22:04.457Z,95045.06
2018-07-27T13:25:08.833Z,95016.80
2018-07-27T13:28:13.054Z,95025.80
2018-07-27T13:31:17.463Z,95026.59
2018-07-27T13:34:39.294Z,95009.14
2018-07-27T13:37:43.855Z,95004.75
2018-07-27T13:40:48.281Z,95002.58
2018-07-27T13:43:52.839Z,95009.17
2018-07-27T13:46:57.305Z,94991.34
2018-07-27T13:50:01.621Z,94994.36
2018-07-27T13:53:06.114Z,94978.07
2018-07-27T13:56:10.531Z,94988.67
2018-07-27T13:59:14.906Z,94969.50
2018-07-27T14:02:19.326Z,94974.25
2018-07-27T14:05:23.778Z,94969.66
2018-07-27T14:08:28.198Z,94948.55
2018-07-27T14:11:32.480Z,94960.98
2018-07-27T14:14:36.778Z,94987.22
2018-07-27T14:17:41.080Z,94987.11
2018-07-27T14:20:45.482Z,94980.50
2018-07-27T14:23:50.004Z,94969.25
2018-07-27T14:26:55.034Z,94977.42
2018-07-27T14:29:59.356Z,94993.59
2018-07-27T14:33:03.677Z,95000.04
2018-07-27T14:36:07.943Z,94986.84
2018-07-27T14:39:14.236Z,94986.08
2018-07-27T14:42:18.576Z,94988.39
2018-07-27T14:45:22.890Z,94977.21
2018-07-27T14:48:27.430Z,94995.61
2018-07-27T14:51:32.120Z,94993.34
2018-07-27T14:54:37.257Z,94982.52
2018-07-27T14:57:41.699Z,94990.64
2018-07-27T15:00:45.993Z,94992.98
2018-07-27T15:03:50.354Z,94977.61
2018-07-27T15:06:54.853Z,94967.67
2018-07-27T15:09:59.195Z,94972.72
2018-07-27T15:13:03.521Z,94969.28
2018-07-27T15:16:07.976Z,94962.56
2018-07-27T15:19:12.278Z,94962.67
2018-07-27T15:22:16.814Z,94950.27
2018-07-27T15:25:21.119Z,94934.78
2018-07-27T15:28:25.287Z,94935.53
2018-07-27T15:31:29.705Z,94926.13
2018-07-27T15:34:34.433Z,94933.09
2018-07-27T15:37:38.825Z,94932.50
2018-07-27T15:40:43.169Z,94921.44
2018-07-27T15:43:47.489Z,94938.34
2018-07-27T15:46:51.805Z,94927.31
2018-07-27T15:49:56.146Z,94924.53
2018-07-27T15:53:01.604Z,94910.71
2018-07-27T15:56:06.332Z,94914.05
2018-07-27T15:59:10.873Z,94904.91
2018-07-27T16:02:15.503Z,94904.65
2018-07-27T16:05:19.999Z,94842.77
2018-07-27T16:08:24.401Z,94892.28
2018-07-27T16:11:28.948Z,94928.16
2018-07-27T16:14:33.361Z,94919.14
2018-07-27T16:17:37.650Z,94938.47
2018-07-27T16:20:41.905Z,94941.37
2018-07-27T16:23:47.032Z,94936.12
2018-07-27T16:26:52.127Z,94924.90
2018-07-27T16:29:56.823Z,94918.59
2018-07-27T16:33:01.933Z,94919.25
2018-07-27T16:36:06.693Z,94919.68
2018-07-27T16:39:11.594Z,94916.32
2018-07-27T16:42:16.208Z,94919.65
2018-07-27T16:45:20.976Z,94918.98
2018-07-27T16:48:26.148Z,94905.88
2018-07-27T16:51:30.673Z,94902.25
2018-07-27T16:54:36.837Z,94899.63
2018-07-27T16:57:43.674Z,94903.57
2018-07-27T17:00:48.410Z,94903.62
2018-07-27T17:03:52.779Z,94957.28
2018-07-27T17:06:56.928Z,94980.16
2018-07-27T17:10:01.420Z,94951.45
2018-07-27T17:13:05.568Z,94932.59
2018-07-27T17:16:10.043Z,94942.00
2018-07-27T17:19:14.466Z,94922.66
2018-07-27T17:22:18.860Z,94915.98
2018-07-27T17:25:23.484Z,94882.23
2018-07-27T17:28:27.802Z,94877.02
2018-07-27T17:31:32.230Z,94875.61
2018-07-27T17:34:36.864Z,94886.49
2018-07-27T17:37:41.096Z,94871.55
2018-07-27T17:40:45.661Z,94880.77
2018-07-27T17:43:50.220Z,94866.97
2018-07-27T17:46:54.771Z,94862.80
2018-07-27T17:49:59.418Z,94859.34
2018-07-27T17:53:03.562Z,94856.13
2018-07-27T17:56:08.136Z,94867.29
2018-07-27T17:59:12.548Z,94864.76
2018-07-27T18:02:16.941Z,94854.17
2018-07-27T18:05:22.484Z,94858.69
2018-07-27T18:08:27.046Z,94853.43
2018-07-27T18:11:31.360Z,94846.22
2018-07-27T18:14:35.773Z,94852.16
2018-07-27T18:17:40.057Z,94835.26
2018-07-27T18:20:44.480Z,94847.56
2018-07-27T18:23:48.656Z,94856.47
2018-07-27T18:26:53.029Z,94855.63
2018-07-27T18:29:57.365Z,94856.22
2018-07-27T18:33:01.688Z,94851.63
2018-07-27T18:36:06.096Z,94852.24
2018-07-27T18:39:12.802Z,94844.59
2018-07-27T18:42:17.581Z,94849.32
2018-07-27T18:45:21.921Z,94844.78
2018-07-27T18:48:26.466Z,94852.30
2018-07-27T18:51:30.983Z,94856.22
2018-07-27T18:54:37.065Z,94845.80
2018-07-27T18:57:41.685Z,94856.24
2018-07-27T19:00:46.228Z,94853.16
2018-07-27T19:03:50.742Z,94850.05
2018-07-27T19:06:55.219Z,94879.12
2018-07-27T19:10:00.035Z,94867.67
2018-07-27T19:13:04.525Z,94864.31
2018-07-27T19:16:09.673Z,94859.28
2018-07-27T19:19:14.095Z,94848.97
2018-07-27T19:22:18.932Z,94859.55
2018-07-27T19:25:23.171Z,94854.66
2018-07-27T19:28:27.562Z,94856.30
2018-07-27T19:31:34.045Z,94856.00
2018-07-27T19:34:38.539Z,94851.69
2018-07-27T19:37:43.029Z,94862.43
2018-07-27T19:40:47.264Z,94856.20
2018-07-27T19:43:52.012Z,94859.19
2018-07-27T19:46:56.825Z,94849.26
2018-07-27T19:50:01.729Z,94852.09
2018-07-27T19:53:06.426Z,94850.06
2018-07-27T19:56:10.821Z,94855.22
2018-07-27T19:59:15.514Z,94856.20
2018-07-27T20:02:20.111Z,94849.33
2018-07-27T20:05:24.898Z,94852.91
2018-07-27T20:08:29.519Z,94846.08
2018-07-27T20:11:34.218Z,94836.50
2018-07-27T20:14:39.031Z,94851.00
2018-07-27T20:17:43.620Z,94836.72
2018-07-27T20:20:48.129Z,94825.77
2018-07-27T20:23:52.539Z,94833.72
2018-07-27T20:26:56.971Z,94836.86
2018-07-27T20:30:01.385Z,94836.33
2018-07-27T20:33:06.712Z,94834.35
2018-07-27T20:36:12.062Z,94828.25
2018-07-27T20:39:16.569Z,94827.69
2018-07-27T20:42:21.070Z,94829.48
2018-07-27T20:45:25.501Z,94826.02
2018-07-27T20:48:30.290Z,94825.48
2018-07-27T20:51:35.443Z,94818.61
2018-07-27T20:54:39.864Z,94795.71
2018-07-27T20:57:44.566Z,94800.01
2018-07-27T21:00:48.809Z,94801.03
2018-07-27T21:03:53.442Z,94825.14
2018-07-27T21:06:57.977Z,94831.50
2018-07-27T21:10:02.267Z,94817.67
2018-07-27T21:13:06.631Z,94814.26
2018-07-27T21:16:11.000Z,94824.33
2018-07-27T21:19:15.395Z,94829.13
2018-07-27T21:22:20.117Z,94834.38
2018-07-27T21:25:24.524Z,94838.02
2018-07-27T21:28:28.832Z,94846.20
2018-07-27T21:31:33.165Z,94841.58
2018-07-27T21:34:37.451Z,94843.86
2018-07-27T21:37:41.890Z,94844.27
2018-07-27T21:40:46.195Z,94825.41
2018-07-27T21:43:50.535Z,94827.52
2018-07-27T21:46:54.776Z,94832.14
2018-07-27T21:49:59.033Z,94817.90
2018-07-27T21:53:03.690Z,94811.38
2018-07-27T21:56:08.122Z,94823.31
2018-07-27T21:59:12.564Z,94831.80
2018-07-27T22:02:16.855Z,94822.57
2018-07-27T22:05:21.103Z,94826.08
2018-07-27T22:08:25.506Z,94811.52
2018-07-27T22:11:29.821Z,94818.43
2018-07-27T22:14:34.236Z,94819.77
2018-07-27T22:17:38.635Z,94815.95
2018-07-27T22:20:43.519Z,94816.51
2018-07-27T22:23:48.087Z,94823.25
2018-07-27T22:26:52.355Z,94820.55
2018-07-27T22:29:56.889Z,94850.34
2018-07-27T22:33:00.930Z,94837.09
2018-07-27T22:36:05.221Z,94840.75
2018-07-27T22:39:10.890Z,94846.49
2018-07-27T22:42:15.173Z,94832.87
2018-07-27T22:45:19.457Z,94838.42
2018-07-27T22:48:23.746Z,94835.75
2018-07-27T22:51:28.104Z,94842.84
2018-07-27T22:54:32.376Z,94829.59
2018-07-27T22:57:36.856Z,94823.27
2018-07-27T23:00:41.158Z,94827.30
2018-07-27T23:03:45.633Z,94814.21
2018-07-27T23:06:49.974Z,94820.17
2018-07-27T23:09:54.290Z,94820.55
2018-07-27T23:12:58.709Z,94819.39
2018-07-27T23:16:03.368Z,94830.15
2018-07-27T23:19:07.690Z,94821.88
2018-07-27T23:22:12.033Z,94816.70
2018-07-27T23:25:16.298Z,94812.85
2018-07-27T23:28:20.565Z,94822.44
2018-07-27T23:31:24.831Z,94812.08
2018-07-27T23:34:29.780Z,94803.03
2018-07-27T23:37:34.115Z,94808.61
2018-07-27T23:40:38.528Z,94816.28
2018-07-27T23:43:42.993Z,94808.20
2018-07-27T23:46:47.230Z,94792.42
2018-07-27T23:49:51.493Z,94791.48
2018-07-27T23:52:56.548Z,94785.52
2018-07-27T23:56:00.925Z,94777.06
2018-07-27T23:59:05.219Z,94775.70
